createdAt,value
2023-01-08T00:01:32.802Z,3.10
2023-01-08T00:04:00.940Z,3.80
2023-01-08T00:06:28.747Z,3.57
2023-01-08T00:09:02.399Z,3.93
2023-01-08T00:11:30.099Z,4.27
2023-01-08T00:13:57.507Z,3.77
2023-01-08T00:16:31.542Z,3.20
2023-01-08T00:18:59.069Z,3.03
2023-01-08T00:21:26.650Z,2.77
2023-01-08T00:24:06.258Z,3.60
2023-01-08T00:26:54.260Z,3.00
2023-01-08T00:29:28.314Z,4.87
2023-01-08T00:31:56.055Z,4.67
2023-01-08T00:34:23.670Z,4.53
2023-01-08T00:36:57.260Z,4.93
2023-01-08T00:39:24.782Z,8.10
2023-01-08T00:41:52.160Z,10.53
2023-01-08T00:44:27.265Z,8.50
2023-01-08T00:46:54.685Z,4.40
2023-01-08T00:49:36.253Z,6.63
2023-01-08T00:52:04.085Z,2.83
2023-01-08T00:54:32.238Z,1.97
2023-01-08T00:57:06.271Z,2.57
2023-01-08T00:59:33.654Z,2.83
2023-01-08T01:02:03.715Z,2.90
2023-01-08T01:04:38.260Z,3.20
2023-01-08T01:07:05.881Z,2.93
2023-01-08T01:09:34.986Z,3.30
2023-01-08T01:12:09.256Z,3.10
2023-01-08T01:14:43.357Z,3.00
2023-01-08T01:17:19.271Z,3.53
2023-01-08T01:19:46.687Z,3.53
2023-01-08T01:22:15.214Z,3.37
2023-01-08T01:24:49.267Z,3.50
2023-01-08T01:27:23.326Z,3.00
2023-01-08T01:29:57.263Z,3.43
2023-01-08T01:32:24.760Z,3.30
2023-01-08T01:34:53.847Z,3.20
2023-01-08T01:37:27.289Z,2.70
2023-01-08T01:39:56.234Z,2.83
2023-01-08T01:42:46.255Z,2.80
2023-01-08T01:45:33.517Z,3.23
2023-01-08T01:48:16.310Z,2.97
2023-01-08T01:50:48.230Z,2.70
2023-01-08T01:53:30.367Z,2.63
2023-01-08T01:55:59.023Z,2.47
2023-01-08T01:58:27.726Z,2.67
2023-01-08T02:01:05.705Z,2.63
2023-01-08T02:03:40.608Z,2.60
2023-01-08T02:06:22.270Z,2.50
2023-01-08T02:09:13.131Z,2.20
2023-01-08T02:12:25.325Z,2.50
2023-01-08T02:15:48.284Z,2.57
2023-01-08T02:18:37.591Z,2.17
2023-01-08T02:21:14.497Z,2.40
2023-01-08T02:23:53.527Z,2.30
2023-01-08T02:26:49.506Z,2.40
2023-01-08T02:29:31.562Z,2.53
2023-01-08T02:32:00.575Z,2.97
2023-01-08T02:34:28.683Z,2.70
2023-01-08T02:37:03.550Z,2.50
2023-01-08T02:39:47.037Z,2.70
2023-01-08T02:42:52.546Z,2.30
2023-01-08T02:45:28.994Z,2.83
2023-01-08T02:48:24.566Z,2.50
2023-01-08T02:51:05.505Z,2.30
2023-01-08T02:53:46.537Z,2.70
2023-01-08T02:56:25.354Z,2.40
2023-01-08T02:59:00.564Z,2.50
2023-01-08T03:01:29.285Z,2.47
2023-01-08T03:04:19.655Z,2.73
2023-01-08T03:06:49.481Z,2.27
2023-01-08T03:09:17.464Z,2.47
2023-01-08T03:12:03.600Z,2.30
2023-01-08T03:14:43.876Z,1.90
2023-01-08T03:17:26.567Z,2.20
2023-01-08T03:20:20.566Z,2.60
2023-01-08T03:22:59.518Z,2.27
2023-01-08T03:25:30.120Z,2.53
2023-01-08T03:28:20.527Z,2.67
2023-01-08T03:30:49.676Z,2.80
2023-01-08T03:33:18.025Z,2.00
2023-01-08T03:35:55.572Z,2.40
2023-01-08T03:38:33.605Z,2.60
2023-01-08T03:41:13.568Z,2.30
2023-01-08T03:43:41.133Z,2.80
2023-01-08T03:46:26.555Z,2.20
2023-01-08T03:48:56.407Z,1.90
2023-01-08T03:51:23.965Z,2.20
2023-01-08T03:54:01.552Z,2.10
2023-01-08T03:56:29.026Z,2.27
2023-01-08T03:58:56.461Z,2.07
2023-01-08T04:01:30.814Z,2.23
2023-01-08T04:03:58.255Z,1.90
2023-01-08T04:06:25.650Z,2.13
2023-01-08T04:08:59.548Z,2.37
2023-01-08T04:11:27.701Z,2.10
2023-01-08T04:13:55.828Z,2.03
2023-01-08T04:16:30.847Z,2.13
2023-01-08T04:18:58.483Z,1.70
2023-01-08T04:21:26.007Z,2.07
2023-01-08T04:24:01.545Z,2.40
2023-01-08T04:26:29.043Z,2.20
2023-01-08T04:29:12.581Z,2.30
2023-01-08T04:31:40.270Z,2.00
2023-01-08T04:34:07.725Z,2.03
2023-01-08T04:36:41.534Z,2.03
2023-01-08T04:39:11.884Z,1.97
2023-01-08T04:41:39.315Z,2.00
2023-01-08T04:44:13.327Z,1.97
2023-01-08T04:46:40.805Z,2.90
2023-01-08T04:49:08.263Z,2.40
2023-01-08T04:51:42.309Z,1.80
2023-01-08T04:54:09.997Z,1.87
2023-01-08T04:56:37.429Z,2.30
2023-01-08T04:59:11.294Z,1.97
2023-01-08T05:01:38.790Z,1.90
2023-01-08T05:04:06.437Z,1.77
2023-01-08T05:06:40.333Z,1.80
2023-01-08T05:09:07.753Z,1.87
2023-01-08T05:11:37.361Z,2.00
2023-01-08T05:14:13.354Z,1.90
2023-01-08T05:16:42.965Z,1.97
2023-01-08T05:19:10.346Z,2.20
2023-01-08T05:21:43.988Z,1.87
2023-01-08T05:24:11.675Z,2.03
2023-01-08T05:26:52.019Z,2.00
2023-01-08T05:29:26.032Z,1.80
2023-01-08T05:32:01.447Z,1.77
2023-01-08T05:34:28.850Z,1.60
2023-01-08T05:36:56.282Z,1.77
2023-01-08T05:39:29.956Z,1.70
2023-01-08T05:41:57.351Z,1.50
2023-01-08T05:44:24.766Z,1.60
2023-01-08T05:47:01.033Z,1.30
2023-01-08T05:49:30.919Z,1.60
2023-01-08T05:51:58.452Z,1.53
2023-01-08T05:54:32.997Z,1.40
2023-01-08T05:57:00.466Z,1.50
2023-01-08T05:59:27.926Z,1.10
2023-01-08T06:02:01.996Z,1.20
2023-01-08T06:04:31.446Z,1.27
2023-01-08T06:07:03.911Z,1.23
2023-01-08T06:09:37.945Z,1.10
2023-01-08T06:12:05.502Z,1.10
2023-01-08T06:14:32.930Z,1.20
2023-01-08T06:17:06.912Z,1.17
2023-01-08T06:19:36.343Z,1.10
2023-01-08T06:22:03.745Z,1.20
2023-01-08T06:24:38.362Z,1.03
2023-01-08T06:27:12.431Z,0.90
2023-01-08T06:29:56.915Z,0.97
2023-01-08T06:32:24.552Z,1.20
2023-01-08T06:34:52.553Z,1.13
2023-01-08T06:37:26.489Z,1.27
2023-01-08T06:39:53.944Z,1.10
2023-01-08T06:42:21.572Z,1.40
2023-01-08T06:44:55.347Z,1.13
2023-01-08T06:47:24.910Z,1.40
2023-01-08T06:49:52.324Z,1.47
2023-01-08T06:52:26.393Z,1.50
2023-01-08T06:54:57.071Z,1.50
2023-01-08T06:57:24.697Z,1.40
2023-01-08T06:59:58.411Z,1.60
2023-01-08T07:02:26.294Z,1.30
2023-01-08T07:04:54.161Z,1.50
2023-01-08T07:07:28.441Z,1.50
2023-01-08T07:09:56.133Z,1.67
2023-01-08T07:12:24.793Z,1.40
2023-01-08T07:15:02.244Z,1.50
2023-01-08T07:17:32.452Z,1.63
2023-01-08T07:20:06.387Z,1.70
2023-01-08T07:22:34.163Z,1.50
2023-01-08T07:25:02.102Z,1.50
2023-01-08T07:27:36.526Z,1.83
2023-01-08T07:30:04.710Z,1.60
2023-01-08T07:32:32.748Z,1.60
2023-01-08T07:35:07.838Z,1.43
2023-01-08T07:37:39.375Z,1.50
2023-01-08T07:40:15.542Z,1.50
2023-01-08T07:42:45.141Z,1.67
2023-01-08T07:45:13.227Z,1.53
2023-01-08T07:47:47.886Z,1.63
2023-01-08T07:50:17.340Z,1.53
2023-01-08T07:52:45.390Z,1.53
2023-01-08T07:55:19.344Z,1.23
2023-01-08T07:57:52.208Z,1.30
2023-01-08T08:00:20.293Z,1.10
2023-01-08T08:02:55.455Z,1.20
2023-01-08T08:05:26.489Z,0.90
2023-01-08T08:07:54.349Z,1.10
2023-01-08T08:10:31.113Z,1.33
2023-01-08T08:12:58.915Z,1.37
2023-01-08T08:15:26.639Z,1.00
2023-01-08T08:18:01.237Z,1.47
2023-01-08T08:20:29.377Z,1.00
2023-01-08T08:23:12.075Z,1.30
2023-01-08T08:25:40.514Z,1.50
2023-01-08T08:28:23.134Z,1.33
2023-01-08T08:30:57.385Z,1.30
2023-01-08T08:33:32.031Z,1.20
2023-01-08T08:35:59.870Z,1.20
2023-01-08T08:38:28.307Z,1.60
2023-01-08T08:41:03.095Z,1.40
2023-01-08T08:43:32.853Z,1.13
2023-01-08T08:46:00.602Z,1.13
2023-01-08T08:48:34.963Z,1.20
2023-01-08T08:51:03.781Z,1.60
2023-01-08T08:53:33.628Z,2.10
2023-01-08T08:56:15.479Z,1.80
2023-01-08T08:58:46.771Z,1.13
2023-01-08T09:01:20.757Z,0.80
2023-01-08T09:03:48.626Z,1.17
2023-01-08T09:06:20.684Z,1.50
2023-01-08T09:08:54.640Z,1.17
2023-01-08T09:11:22.484Z,1.20
2023-01-08T09:13:50.198Z,27.00
2023-01-08T09:16:24.740Z,1.07
2023-01-08T09:18:52.432Z,1.17
2023-01-08T09:21:21.990Z,1.20
2023-01-08T09:24:00.907Z,12.37
2023-01-08T09:26:32.607Z,1.00
2023-01-08T09:29:14.796Z,15.63
2023-01-08T09:31:46.877Z,1.07
2023-01-08T09:34:16.259Z,5.60
2023-01-08T09:36:51.935Z,21.47
2023-01-08T09:39:20.838Z,1.20
2023-01-08T09:41:49.332Z,1.20
2023-01-08T09:44:37.491Z,2.27
2023-01-08T09:47:08.035Z,2.37
2023-01-08T09:49:52.863Z,3.10
2023-01-08T09:52:20.567Z,2.20
2023-01-08T09:54:50.641Z,1.00
2023-01-08T09:57:28.363Z,0.80
2023-01-08T09:59:56.025Z,1.20
2023-01-08T10:02:36.720Z,0.73
2023-01-08T10:05:14.658Z,1.13
2023-01-08T10:07:49.551Z,0.70
2023-01-08T10:10:26.420Z,0.90
2023-01-08T10:13:01.587Z,1.00
2023-01-08T10:15:29.514Z,0.90
2023-01-08T10:18:10.598Z,0.70
2023-01-08T10:20:39.549Z,0.80
2023-01-08T10:23:19.698Z,1.00
2023-01-08T10:26:02.334Z,0.73
2023-01-08T10:28:43.653Z,0.60
2023-01-08T10:31:23.652Z,0.60
2023-01-08T10:33:58.719Z,0.60
2023-01-08T10:36:27.917Z,0.40
2023-01-08T10:39:11.385Z,0.67
2023-01-08T10:41:40.353Z,0.70
2023-01-08T10:44:23.713Z,0.70
2023-01-08T10:46:56.165Z,0.97
2023-01-08T10:49:40.685Z,0.60
2023-01-08T10:52:27.686Z,0.60
2023-01-08T10:55:03.669Z,0.70
2023-01-08T10:57:33.956Z,0.80
2023-01-08T11:00:02.586Z,0.80
2023-01-08T11:02:45.736Z,0.80
2023-01-08T11:05:16.369Z,0.40
2023-01-08T11:07:55.705Z,0.50
2023-01-08T11:10:28.336Z,0.40
2023-01-08T11:13:07.639Z,0.70
2023-01-08T11:15:39.075Z,0.70
2023-01-08T11:18:34.662Z,0.73
2023-01-08T11:21:18.582Z,0.50
2023-01-08T11:23:55.040Z,0.60
2023-01-08T11:26:23.168Z,0.50
2023-01-08T11:29:31.647Z,0.50
2023-01-08T11:32:25.002Z,0.60
2023-01-08T11:35:17.871Z,0.40
2023-01-08T11:37:54.727Z,0.50
2023-01-08T11:40:58.144Z,0.40
2023-01-08T11:43:45.217Z,0.50
2023-01-08T11:46:35.108Z,0.50
2023-01-08T11:49:29.806Z,0.52
2023-01-08T11:52:33.963Z,0.43
2023-01-08T11:55:29.817Z,0.50
2023-01-08T11:58:34.029Z,0.40
2023-01-08T12:01:25.928Z,0.38
2023-01-08T12:04:33.136Z,0.50
2023-01-08T12:07:19.426Z,0.50
2023-01-08T12:10:10.388Z,0.88
2023-01-08T12:13:02.336Z,0.63
2023-01-08T12:16:04.878Z,1.35
2023-01-08T12:19:07.318Z,0.90
2023-01-08T12:25:48.992Z,0.50
2023-01-08T12:28:48.174Z,0.77
2023-01-08T12:32:04.260Z,0.77
2023-01-08T12:35:02.166Z,0.90
2023-01-08T12:37:56.873Z,0.43
2023-01-08T12:40:41.943Z,0.47
2023-01-08T12:43:56.785Z,0.93
2023-01-08T12:46:27.422Z,0.80
2023-01-08T12:49:07.699Z,0.50
2023-01-08T12:51:46.273Z,0.93
2023-01-08T12:54:29.864Z,0.40
2023-01-08T12:57:16.657Z,0.60
2023-01-08T13:00:09.888Z,0.60
2023-01-08T13:02:52.635Z,0.60
2023-01-08T15:03:09.212Z,0.30
2023-01-08T15:05:37.792Z,0.40
2023-01-08T15:16:04.239Z,0.60
2023-01-08T15:18:40.268Z,0.60
2023-01-08T15:21:16.266Z,0.63
2023-01-08T15:23:49.277Z,0.50
2023-01-08T15:26:27.310Z,0.50
2023-01-08T15:29:03.390Z,0.67
2023-01-08T15:31:57.125Z,0.67
2023-01-08T15:34:32.713Z,0.80
2023-01-08T15:37:09.066Z,0.70
2023-01-08T15:39:41.578Z,0.70
2023-01-08T15:42:48.358Z,0.70
2023-01-08T15:45:27.195Z,0.93
2023-01-08T15:47:55.542Z,1.00
2023-01-08T15:50:31.071Z,1.07
2023-01-08T15:53:08.050Z,1.27
2023-01-08T15:55:42.992Z,1.30
2023-01-08T15:58:13.193Z,1.43
2023-01-08T16:00:50.080Z,1.30
2023-01-08T16:03:32.009Z,1.20
2023-01-08T16:06:13.046Z,1.10
2023-01-08T16:08:46.022Z,1.17
2023-01-08T16:11:20.960Z,1.00
2023-01-08T16:13:56.023Z,1.20
2023-01-08T16:16:24.349Z,0.97
2023-01-08T16:18:59.061Z,1.07
2023-01-08T16:21:33.027Z,1.20
2023-01-08T16:24:01.947Z,1.10
2023-01-08T16:26:36.980Z,1.00
2023-01-08T16:29:06.327Z,1.20
2023-01-08T16:31:41.120Z,1.10
2023-01-08T16:34:09.270Z,1.23
2023-01-08T16:36:44.243Z,1.60
2023-01-08T16:39:18.208Z,1.60
2023-01-08T16:41:55.003Z,1.80
2023-01-08T16:44:31.966Z,1.80
2023-01-08T16:47:08.092Z,1.83
2023-01-08T16:49:43.163Z,1.60
2023-01-08T16:52:18.023Z,2.20
2023-01-08T16:54:46.185Z,2.03
2023-01-08T16:57:23.055Z,2.20
2023-01-08T16:59:58.101Z,1.97
2023-01-08T17:02:26.050Z,2.60
2023-01-08T17:05:13.406Z,2.40
2023-01-08T17:07:41.071Z,2.30
2023-01-08T17:10:17.224Z,2.20
2023-01-08T17:12:44.816Z,2.80
2023-01-08T17:15:23.170Z,3.00
2023-01-08T17:17:51.005Z,3.30
2023-01-08T17:20:27.116Z,3.53
2023-01-08T17:23:04.206Z,3.80
2023-01-08T17:25:38.133Z,4.13
2023-01-08T17:28:05.943Z,4.13
2023-01-08T17:30:40.230Z,3.90
2023-01-08T17:33:08.138Z,5.20
2023-01-08T17:35:43.970Z,4.70
2023-01-08T17:38:19.004Z,4.60
2023-01-08T17:40:53.113Z,12.90
2023-01-08T17:43:27.760Z,6.57
2023-01-08T17:46:02.085Z,4.97
2023-01-08T17:48:30.330Z,5.10
2023-01-08T17:51:04.007Z,7.77
2023-01-08T17:53:38.037Z,6.10
2023-01-08T17:56:12.132Z,8.57
2023-01-08T17:58:39.667Z,7.57
2023-01-08T18:01:21.109Z,5.80
2023-01-08T18:03:56.614Z,6.17
2023-01-08T18:06:37.032Z,6.33
2023-01-08T18:09:13.044Z,6.60
2023-01-08T18:11:41.993Z,6.90
2023-01-08T18:14:19.014Z,6.83
2023-01-08T18:16:52.990Z,6.43
2023-01-08T18:19:20.758Z,7.07
2023-01-08T18:21:56.440Z,7.13
2023-01-08T18:24:28.117Z,6.73
2023-01-08T18:27:04.215Z,6.83
2023-01-08T18:29:38.111Z,7.03
2023-01-08T18:32:06.109Z,6.80
2023-01-08T18:34:41.083Z,6.53
2023-01-08T18:37:15.466Z,8.23
2023-01-08T18:39:49.107Z,7.30
2023-01-08T18:42:36.128Z,6.80
2023-01-08T18:45:05.038Z,7.03
2023-01-08T18:47:44.754Z,6.97
2023-01-08T18:50:13.808Z,7.13
2023-01-08T18:52:50.649Z,7.17
2023-01-08T18:55:25.104Z,8.07
2023-01-08T18:58:01.136Z,7.63
2023-01-08T19:00:38.104Z,7.70
2023-01-08T19:03:15.005Z,6.70
2023-01-08T19:05:49.153Z,6.87
2023-01-08T19:08:23.039Z,7.77
2023-01-08T19:10:50.456Z,7.93
2023-01-08T19:13:26.005Z,7.73
2023-01-08T19:15:56.257Z,7.43
2023-01-08T19:18:31.998Z,7.37
2023-01-08T19:21:06.005Z,8.20
2023-01-08T19:23:33.588Z,7.90
2023-01-08T19:26:10.992Z,8.27
2023-01-08T19:28:42.541Z,7.47
2023-01-08T19:31:25.086Z,7.13
2023-01-08T19:33:53.446Z,7.70
2023-01-08T19:36:28.069Z,8.53
2023-01-08T19:38:55.468Z,7.43
2023-01-08T19:41:48.015Z,7.77
2023-01-08T19:44:23.308Z,8.20
2023-01-08T19:46:50.753Z,8.40
2023-01-08T19:49:18.186Z,8.77
2023-01-08T19:51:52.320Z,8.57
2023-01-08T19:54:28.372Z,8.40
2023-01-08T19:56:59.433Z,8.50
2023-01-08T19:59:33.311Z,8.30
2023-01-08T20:02:09.619Z,9.23
2023-01-08T20:04:46.783Z,9.40
2023-01-08T20:07:21.307Z,9.30
2023-01-08T20:09:50.447Z,10.00
2023-01-08T20:12:24.598Z,9.77
2023-01-08T20:14:51.983Z,9.67
2023-01-08T20:17:31.572Z,10.10
2023-01-08T20:20:02.967Z,9.40
2023-01-08T20:22:38.521Z,9.70
2023-01-08T20:25:15.486Z,10.60
2023-01-08T20:27:44.290Z,10.27
2023-01-08T20:30:21.549Z,9.93
2023-01-08T20:33:01.516Z,9.60
2023-01-08T20:35:28.991Z,9.70
2023-01-08T20:38:09.670Z,9.10
2023-01-08T20:40:41.263Z,8.97
2023-01-08T20:43:15.642Z,8.63
2023-01-08T20:45:44.466Z,8.83
2023-01-08T20:48:21.892Z,7.83
2023-01-08T20:50:56.504Z,8.57
2023-01-08T20:53:30.648Z,8.63
2023-01-08T20:56:02.689Z,8.63
2023-01-08T20:58:45.864Z,8.27
2023-01-08T21:01:25.696Z,7.97
2023-01-08T21:04:14.667Z,7.30
2023-01-08T21:06:55.950Z,7.70
2023-01-08T21:09:26.533Z,7.97
2023-01-08T21:12:03.646Z,8.07
2023-01-08T21:14:37.771Z,7.23
2023-01-08T21:17:11.644Z,7.50
2023-01-08T21:19:55.356Z,7.10
2023-01-08T21:22:23.575Z,6.93
2023-01-08T21:24:58.408Z,7.03
2023-01-08T21:27:27.904Z,7.03
2023-01-08T21:30:01.616Z,6.43
2023-01-08T21:32:37.651Z,7.10
2023-01-08T21:35:11.635Z,6.60
2023-01-08T21:37:39.453Z,7.03
2023-01-08T21:40:25.874Z,6.73
2023-01-08T21:43:14.176Z,7.00
2023-01-08T21:45:48.744Z,6.00
2023-01-08T21:48:24.719Z,5.87
2023-01-08T21:50:52.207Z,6.20
2023-01-08T21:53:38.698Z,5.50
2023-01-08T21:56:12.949Z,4.80
2023-01-08T21:58:48.398Z,5.20
2023-01-08T22:01:20.946Z,4.47
2023-01-08T22:03:59.396Z,4.53
2023-01-08T22:06:34.874Z,4.20
2023-01-08T22:09:10.343Z,4.77
2023-01-08T22:11:45.492Z,4.33
2023-01-08T22:14:16.015Z,3.83
2023-01-08T22:16:51.454Z,3.40
2023-01-08T22:19:19.155Z,3.60
2023-01-08T22:21:53.745Z,3.10
2023-01-08T22:24:35.585Z,3.23
2023-01-08T22:27:12.796Z,2.60
2023-01-08T22:29:49.287Z,2.50
2023-01-08T22:32:18.874Z,2.30
2023-01-08T22:34:54.773Z,2.33
2023-01-08T22:37:22.587Z,2.17
2023-01-08T22:39:56.748Z,2.20
2023-01-08T22:42:28.016Z,2.10
2023-01-08T22:45:05.577Z,2.10
2023-01-08T22:47:39.449Z,2.17
2023-01-08T22:50:07.127Z,2.70
2023-01-08T22:52:42.495Z,2.90
2023-01-08T22:55:12.312Z,2.67
2023-01-08T22:57:40.819Z,3.43
2023-01-08T23:00:20.333Z,3.03
2023-01-08T23:02:50.583Z,3.20
2023-01-08T23:05:31.513Z,2.70
2023-01-08T23:08:05.514Z,2.50
2023-01-08T23:10:39.589Z,2.80
2023-01-08T23:13:12.208Z,2.37
2023-01-08T23:15:46.045Z,2.60
2023-01-08T23:18:21.933Z,2.93
2023-01-08T23:20:57.043Z,2.60
2023-01-08T23:23:24.458Z,2.90
2023-01-08T23:25:58.101Z,2.73
2023-01-08T23:28:28.759Z,2.83
2023-01-08T23:31:04.478Z,3.23
2023-01-08T23:33:34.162Z,3.50
2023-01-08T23:36:11.347Z,3.37
2023-01-08T23:38:38.710Z,3.80
2023-01-08T23:41:13.361Z,3.90
2023-01-08T23:43:41.346Z,4.00
2023-01-08T23:46:15.347Z,4.60
2023-01-08T23:48:43.266Z,4.50
2023-01-08T23:51:17.382Z,4.83
2023-01-08T23:53:44.795Z,4.50
2023-01-08T23:56:23.539Z,4.60
2023-01-08T23:58:54.992Z,4.47
